sensor_id;sensor_type;location;lat;lon;timestamp;temperature;humidity
9816;DHT22;4947;44.526;11.360;2022-10-16T00:00:44;17.90;99.90
9816;DHT22;4947;44.526;11.360;2022-10-16T00:03:12;17.80;99.90
9816;DHT22;4947;44.526;11.360;2022-10-16T00:05:41;17.80;99.90
9816;DHT22;4947;44.526;11.360;2022-10-16T00:08:11;17.80;99.90
9816;DHT22;4947;44.526;11.360;2022-10-16T00:10:40;17.80;99.90
9816;DHT22;4947;44.526;11.360;2022-10-16T00:13:08;17.80;99.90
9816;DHT22;4947;44.526;11.360;2022-10-16T00:15:36;17.80;99.90
9816;DHT22;4947;44.526;11.360;2022-10-16T00:18:05;17.80;99.90
9816;DHT22;4947;44.526;11.360;2022-10-16T00:20:34;17.80;99.90
9816;DHT22;4947;44.526;11.360;2022-10-16T00:23:02;17.80;99.90
9816;DHT22;4947;44.526;11.360;2022-10-16T00:25:30;17.80;99.90
9816;DHT22;4947;44.526;11.360;2022-10-16T00:28:01;17.70;99.90
9816;DHT22;4947;44.526;11.360;2022-10-16T00:30:29;17.70;99.90
9816;DHT22;4947;44.526;11.360;2022-10-16T00:32:56;17.60;99.90
9816;DHT22;4947;44.526;11.360;2022-10-16T00:35:24;17.60;99.90
9816;DHT22;4947;44.526;11.360;2022-10-16T00:37:51;17.60;99.90
9816;DHT22;4947;44.526;11.360;2022-10-16T00:40:19;17.60;99.90
9816;DHT22;4947;44.526;11.360;2022-10-16T00:42:47;17.60;99.90
9816;DHT22;4947;44.526;11.360;2022-10-16T00:45:18;17.50;99.90
9816;DHT22;4947;44.526;11.360;2022-10-16T00:47:46;17.50;99.90
9816;DHT22;4947;44.526;11.360;2022-10-16T00:50:22;17.50;99.90
9816;DHT22;4947;44.526;11.360;2022-10-16T00:52:51;17.50;99.90
9816;DHT22;4947;44.526;11.360;2022-10-16T00:55:20;17.40;99.90
9816;DHT22;4947;44.526;11.360;2022-10-16T00:57:48;17.40;99.90
9816;DHT22;4947;44.526;11.360;2022-10-16T01:00:21;17.40;99.90
9816;DHT22;4947;44.526;11.360;2022-10-16T01:02:52;17.40;99.90
9816;DHT22;4947;44.526;11.360;2022-10-16T01:05:21;17.40;99.90
9816;DHT22;4947;44.526;11.360;2022-10-16T01:07:56;17.30;99.90
9816;DHT22;4947;44.526;11.360;2022-10-16T01:10:30;17.30;99.90
9816;DHT22;4947;44.526;11.360;2022-10-16T01:13:04;17.20;99.90
9816;DHT22;4947;44.526;11.360;2022-10-16T01:15:37;17.10;99.90
9816;DHT22;4947;44.526;11.360;2022-10-16T01:18:10;17.10;99.90
9816;DHT22;4947;44.526;11.360;2022-10-16T01:20:44;17.00;99.90
9816;DHT22;4947;44.526;11.360;2022-10-16T01:23:27;17.00;99.90
9816;DHT22;4947;44.526;11.360;2022-10-16T01:26:12;17.00;99.90
9816;DHT22;4947;44.526;11.360;2022-10-16T01:28:49;17.00;99.90
9816;DHT22;4947;44.526;11.360;2022-10-16T01:31:21;17.00;99.90
9816;DHT22;4947;44.526;11.360;2022-10-16T01:33:57;16.90;99.90
9816;DHT22;4947;44.526;11.360;2022-10-16T01:36:30;16.90;99.90
9816;DHT22;4947;44.526;11.360;2022-10-16T01:39:03;16.90;99.90
9816;DHT22;4947;44.526;11.360;2022-10-16T01:41:34;16.90;99.90
9816;DHT22;4947;44.526;11.360;2022-10-16T01:44:07;16.90;99.90
9816;DHT22;4947;44.526;11.360;2022-10-16T01:46:40;16.80;99.90
9816;DHT22;4947;44.526;11.360;2022-10-16T01:49:09;16.80;99.90
9816;DHT22;4947;44.526;11.360;2022-10-16T01:51:38;16.80;99.90
9816;DHT22;4947;44.526;11.360;2022-10-16T01:54:08;16.80;99.90
9816;DHT22;4947;44.526;11.360;2022-10-16T01:56:37;16.80;99.90
9816;DHT22;4947;44.526;11.360;2022-10-16T01:59:13;16.80;99.90
9816;DHT22;4947;44.526;11.360;2022-10-16T02:01:46;16.80;99.90
9816;DHT22;4947;44.526;11.360;2022-10-16T02:04:17;16.80;99.90
9816;DHT22;4947;44.526;11.360;2022-10-16T02:06:47;16.70;99.90
9816;DHT22;4947;44.526;11.360;2022-10-16T02:09:14;16.70;99.90
9816;DHT22;4947;44.526;11.360;2022-10-16T02:11:42;16.70;99.90
9816;DHT22;4947;44.526;11.360;2022-10-16T02:14:12;16.70;99.90
9816;DHT22;4947;44.526;11.360;2022-10-16T02:16:41;16.70;99.90
9816;DHT22;4947;44.526;11.360;2022-10-16T02:19:10;16.70;99.90
9816;DHT22;4947;44.526;11.360;2022-10-16T02:21:43;16.70;99.90
9816;DHT22;4947;44.526;11.360;2022-10-16T02:24:18;16.80;99.90
9816;DHT22;4947;44.526;11.360;2022-10-16T02:26:50;16.80;99.90
9816;DHT22;4947;44.526;11.360;2022-10-16T02:29:22;16.80;99.90
9816;DHT22;4947;44.526;11.360;2022-10-16T02:31:53;16.80;99.90
9816;DHT22;4947;44.526;11.360;2022-10-16T02:34:23;16.80;99.90
9816;DHT22;4947;44.526;11.360;2022-10-16T02:36:53;16.80;99.90
9816;DHT22;4947;44.526;11.360;2022-10-16T02:39:22;16.90;99.90
9816;DHT22;4947;44.526;11.360;2022-10-16T02:41:49;16.90;99.90
9816;DHT22;4947;44.526;11.360;2022-10-16T02:44:18;16.80;99.90
9816;DHT22;4947;44.526;11.360;2022-10-16T02:46:46;16.80;99.90
9816;DHT22;4947;44.526;11.360;2022-10-16T02:49:13;16.80;99.90
9816;DHT22;4947;44.526;11.360;2022-10-16T02:51:40;16.70;99.90
9816;DHT22;4947;44.526;11.360;2022-10-16T02:54:08;16.60;99.90
9816;DHT22;4947;44.526;11.360;2022-10-16T02:56:35;16.50;99.90
9816;DHT22;4947;44.526;11.360;2022-10-16T02:59:02;16.50;99.90
9816;DHT22;4947;44.526;11.360;2022-10-16T03:01:31;16.50;99.90
9816;DHT22;4947;44.526;11.360;2022-10-16T03:03:59;16.40;99.90
9816;DHT22;4947;44.526;11.360;2022-10-16T03:06:27;16.40;99.90
9816;DHT22;4947;44.526;11.360;2022-10-16T03:08:54;16.20;99.90
9816;DHT22;4947;44.526;11.360;2022-10-16T03:11:21;16.20;99.90
9816;DHT22;4947;44.526;11.360;2022-10-16T03:13:49;16.20;99.90
9816;DHT22;4947;44.526;11.360;2022-10-16T03:16:16;16.20;99.90
9816;DHT22;4947;44.526;11.360;2022-10-16T03:18:48;16.20;99.90
9816;DHT22;4947;44.526;11.360;2022-10-16T03:21:16;16.20;99.90
9816;DHT22;4947;44.526;11.360;2022-10-16T03:23:44;16.10;99.90
9816;DHT22;4947;44.526;11.360;2022-10-16T03:26:11;16.10;99.90
9816;DHT22;4947;44.526;11.360;2022-10-16T03:28:39;16.00;99.90
9816;DHT22;4947;44.526;11.360;2022-10-16T03:31:06;16.00;99.90
9816;DHT22;4947;44.526;11.360;2022-10-16T03:33:34;16.00;99.90
9816;DHT22;4947;44.526;11.360;2022-10-16T03:36:04;16.00;99.90
9816;DHT22;4947;44.526;11.360;2022-10-16T03:38:31;16.00;99.90
9816;DHT22;4947;44.526;11.360;2022-10-16T03:40:59;15.90;99.90
9816;DHT22;4947;44.526;11.360;2022-10-16T03:43:27;15.90;99.90
9816;DHT22;4947;44.526;11.360;2022-10-16T03:45:54;15.90;99.90
9816;DHT22;4947;44.526;11.360;2022-10-16T03:48:22;15.90;99.90
9816;DHT22;4947;44.526;11.360;2022-10-16T03:50:49;15.90;99.90
9816;DHT22;4947;44.526;11.360;2022-10-16T03:53:18;15.80;99.90
9816;DHT22;4947;44.526;11.360;2022-10-16T03:55:46;15.80;99.90
9816;DHT22;4947;44.526;11.360;2022-10-16T03:58:13;15.80;99.90
9816;DHT22;4947;44.526;11.360;2022-10-16T04:00:41;15.70;99.90
9816;DHT22;4947;44.526;11.360;2022-10-16T04:03:09;15.60;99.90
9816;DHT22;4947;44.526;11.360;2022-10-16T04:05:47;15.60;99.90
9816;DHT22;4947;44.526;11.360;2022-10-16T04:08:15;15.60;99.90
9816;DHT22;4947;44.526;11.360;2022-10-16T04:10:50;15.50;99.90
9816;DHT22;4947;44.526;11.360;2022-10-16T04:13:17;15.40;99.90
9816;DHT22;4947;44.526;11.360;2022-10-16T04:15:45;15.30;99.90
9816;DHT22;4947;44.526;11.360;2022-10-16T04:18:13;15.30;99.90
9816;DHT22;4947;44.526;11.360;2022-10-16T04:20:40;15.30;99.90
9816;DHT22;4947;44.526;11.360;2022-10-16T04:23:08;15.20;99.90
9816;DHT22;4947;44.526;11.360;2022-10-16T04:25:35;15.20;99.90
9816;DHT22;4947;44.526;11.360;2022-10-16T04:28:04;15.20;99.90
9816;DHT22;4947;44.526;11.360;2022-10-16T04:30:32;15.20;99.90
9816;DHT22;4947;44.526;11.360;2022-10-16T04:33:00;15.10;99.90
9816;DHT22;4947;44.526;11.360;2022-10-16T04:35:28;15.10;99.90
9816;DHT22;4947;44.526;11.360;2022-10-16T04:37:57;15.20;99.90
9816;DHT22;4947;44.526;11.360;2022-10-16T04:40:25;15.20;99.90
9816;DHT22;4947;44.526;11.360;2022-10-16T04:42:52;15.30;99.90
9816;DHT22;4947;44.526;11.360;2022-10-16T04:45:22;15.30;99.90
9816;DHT22;4947;44.526;11.360;2022-10-16T04:47:49;15.30;99.90
9816;DHT22;4947;44.526;11.360;2022-10-16T04:50:17;15.40;99.90
9816;DHT22;4947;44.526;11.360;2022-10-16T04:52:44;15.40;99.90
9816;DHT22;4947;44.526;11.360;2022-10-16T04:55:12;15.30;99.90
9816;DHT22;4947;44.526;11.360;2022-10-16T04:57:40;15.40;99.90
9816;DHT22;4947;44.526;11.360;2022-10-16T05:00:09;15.40;99.90
9816;DHT22;4947;44.526;11.360;2022-10-16T05:02:38;15.40;99.90
9816;DHT22;4947;44.526;11.360;2022-10-16T05:05:10;15.30;99.90
9816;DHT22;4947;44.526;11.360;2022-10-16T05:07:37;15.40;99.90
9816;DHT22;4947;44.526;11.360;2022-10-16T05:10:06;15.40;99.90
9816;DHT22;4947;44.526;11.360;2022-10-16T05:12:34;15.40;99.90
9816;DHT22;4947;44.526;11.360;2022-10-16T05:15:01;15.40;99.90
9816;DHT22;4947;44.526;11.360;2022-10-16T05:17:29;15.40;99.90
9816;DHT22;4947;44.526;11.360;2022-10-16T05:19:58;15.40;99.90
9816;DHT22;4947;44.526;11.360;2022-10-16T05:22:26;15.40;99.90
9816;DHT22;4947;44.526;11.360;2022-10-16T05:24:53;15.40;99.90
9816;DHT22;4947;44.526;11.360;2022-10-16T05:27:21;15.40;99.90
9816;DHT22;4947;44.526;11.360;2022-10-16T05:29:49;15.40;99.90
9816;DHT22;4947;44.526;11.360;2022-10-16T05:32:17;15.40;99.90
9816;DHT22;4947;44.526;11.360;2022-10-16T05:34:46;15.40;99.90
9816;DHT22;4947;44.526;11.360;2022-10-16T05:37:15;15.40;99.90
9816;DHT22;4947;44.526;11.360;2022-10-16T05:39:43;15.40;99.90
9816;DHT22;4947;44.526;11.360;2022-10-16T05:42:10;15.30;99.90
9816;DHT22;4947;44.526;11.360;2022-10-16T05:44:37;15.30;99.90
9816;DHT22;4947;44.526;11.360;2022-10-16T05:47:05;15.30;99.90
9816;DHT22;4947;44.526;11.360;2022-10-16T05:49:32;15.40;99.90
9816;DHT22;4947;44.526;11.360;2022-10-16T05:52:00;15.40;99.90
9816;DHT22;4947;44.526;11.360;2022-10-16T05:54:29;15.40;99.90
9816;DHT22;4947;44.526;11.360;2022-10-16T05:56:56;15.40;99.90
9816;DHT22;4947;44.526;11.360;2022-10-16T05:59:24;15.40;99.90
9816;DHT22;4947;44.526;11.360;2022-10-16T06:01:51;15.50;99.90
9816;DHT22;4947;44.526;11.360;2022-10-16T06:04:19;15.60;99.90
9816;DHT22;4947;44.526;11.360;2022-10-16T06:06:46;15.60;99.90
9816;DHT22;4947;44.526;11.360;2022-10-16T06:09:14;15.70;99.90
9816;DHT22;4947;44.526;11.360;2022-10-16T06:11:43;15.70;99.90
9816;DHT22;4947;44.526;11.360;2022-10-16T06:14:10;15.70;99.90
9816;DHT22;4947;44.526;11.360;2022-10-16T06:16:38;15.80;99.90
9816;DHT22;4947;44.526;11.360;2022-10-16T06:19:05;15.90;99.90
9816;DHT22;4947;44.526;11.360;2022-10-16T06:21:36;15.90;99.90
9816;DHT22;4947;44.526;11.360;2022-10-16T06:24:04;16.00;99.90
9816;DHT22;4947;44.526;11.360;2022-10-16T06:26:31;16.00;99.90
9816;DHT22;4947;44.526;11.360;2022-10-16T06:29:00;16.10;99.90
9816;DHT22;4947;44.526;11.360;2022-10-16T06:31:28;16.20;99.90
9816;DHT22;4947;44.526;11.360;2022-10-16T06:33:56;16.20;99.90
9816;DHT22;4947;44.526;11.360;2022-10-16T06:36:25;16.30;99.90
9816;DHT22;4947;44.526;11.360;2022-10-16T06:38:52;16.40;99.90
9816;DHT22;4947;44.526;11.360;2022-10-16T06:41:21;16.50;99.90
9816;DHT22;4947;44.526;11.360;2022-10-16T06:43:49;16.60;99.90
9816;DHT22;4947;44.526;11.360;2022-10-16T06:46:21;16.60;99.90
9816;DHT22;4947;44.526;11.360;2022-10-16T06:48:49;16.80;99.90
9816;DHT22;4947;44.526;11.360;2022-10-16T06:51:17;16.90;99.90
9816;DHT22;4947;44.526;11.360;2022-10-16T06:53:46;17.00;99.90
9816;DHT22;4947;44.526;11.360;2022-10-16T06:56:16;17.10;99.90
9816;DHT22;4947;44.526;11.360;2022-10-16T06:58:44;17.20;99.90
9816;DHT22;4947;44.526;11.360;2022-10-16T07:01:14;17.30;99.90
9816;DHT22;4947;44.526;11.360;2022-10-16T07:03:44;17.40;99.90
9816;DHT22;4947;44.526;11.360;2022-10-16T07:06:14;17.50;99.90
9816;DHT22;4947;44.526;11.360;2022-10-16T07:08:44;17.50;99.90
9816;DHT22;4947;44.526;11.360;2022-10-16T07:11:13;17.60;99.90
9816;DHT22;4947;44.526;11.360;2022-10-16T07:13:42;17.70;99.90
9816;DHT22;4947;44.526;11.360;2022-10-16T07:16:11;17.80;99.90
9816;DHT22;4947;44.526;11.360;2022-10-16T07:18:39;17.90;99.90
9816;DHT22;4947;44.526;11.360;2022-10-16T07:21:11;18.00;99.90
9816;DHT22;4947;44.526;11.360;2022-10-16T07:23:39;18.10;99.90
9816;DHT22;4947;44.526;11.360;2022-10-16T07:26:08;18.30;99.90
9816;DHT22;4947;44.526;11.360;2022-10-16T07:28:35;18.40;99.90
9816;DHT22;4947;44.526;11.360;2022-10-16T07:31:03;18.50;99.90
9816;DHT22;4947;44.526;11.360;2022-10-16T07:33:32;18.50;99.90
9816;DHT22;4947;44.526;11.360;2022-10-16T07:36:00;18.60;99.90
9816;DHT22;4947;44.526;11.360;2022-10-16T07:38:30;18.70;99.90
9816;DHT22;4947;44.526;11.360;2022-10-16T07:40:58;18.80;99.90
9816;DHT22;4947;44.526;11.360;2022-10-16T07:43:26;19.00;99.90
9816;DHT22;4947;44.526;11.360;2022-10-16T07:45:54;19.10;99.90
9816;DHT22;4947;44.526;11.360;2022-10-16T07:48:22;19.30;99.90
9816;DHT22;4947;44.526;11.360;2022-10-16T07:50:50;19.30;99.90
9816;DHT22;4947;44.526;11.360;2022-10-16T07:53:17;19.40;99.90
9816;DHT22;4947;44.526;11.360;2022-10-16T07:55:47;19.50;99.90
9816;DHT22;4947;44.526;11.360;2022-10-16T07:58:14;19.70;99.90
9816;DHT22;4947;44.526;11.360;2022-10-16T08:00:42;20.00;99.90
9816;DHT22;4947;44.526;11.360;2022-10-16T08:03:09;20.30;99.90
9816;DHT22;4947;44.526;11.360;2022-10-16T08:05:37;20.80;99.90
9816;DHT22;4947;44.526;11.360;2022-10-16T08:08:04;21.10;99.60
9816;DHT22;4947;44.526;11.360;2022-10-16T08:10:32;21.70;97.60
9816;DHT22;4947;44.526;11.360;2022-10-16T08:13:01;22.40;95.30
9816;DHT22;4947;44.526;11.360;2022-10-16T08:15:29;23.20;93.50
9816;DHT22;4947;44.526;11.360;2022-10-16T08:17:59;24.10;90.00
9816;DHT22;4947;44.526;11.360;2022-10-16T08:20:27;24.70;84.80
9816;DHT22;4947;44.526;11.360;2022-10-16T08:22:55;25.30;81.70
9816;DHT22;4947;44.526;11.360;2022-10-16T08:25:24;25.90;78.30
9816;DHT22;4947;44.526;11.360;2022-10-16T08:27:51;26.60;75.50
9816;DHT22;4947;44.526;11.360;2022-10-16T08:30:23;27.00;72.50
9816;DHT22;4947;44.526;11.360;2022-10-16T08:32:51;27.30;71.00
9816;DHT22;4947;44.526;11.360;2022-10-16T08:35:18;27.60;69.30
9816;DHT22;4947;44.526;11.360;2022-10-16T08:37:46;27.00;70.60
9816;DHT22;4947;44.526;11.360;2022-10-16T08:40:18;27.60;70.00
9816;DHT22;4947;44.526;11.360;2022-10-16T08:43:06;27.60;66.70
9816;DHT22;4947;44.526;11.360;2022-10-16T08:45:44;28.10;65.30
9816;DHT22;4947;44.526;11.360;2022-10-16T08:48:20;28.10;64.10
9816;DHT22;4947;44.526;11.360;2022-10-16T08:50:52;27.70;65.10
9816;DHT22;4947;44.526;11.360;2022-10-16T08:53:24;27.80;65.50
9816;DHT22;4947;44.526;11.360;2022-10-16T08:55:53;27.80;64.90
9816;DHT22;4947;44.526;11.360;2022-10-16T08:58:22;28.00;63.90
9816;DHT22;4947;44.526;11.360;2022-10-16T09:00:53;28.10;63.10
9816;DHT22;4947;44.526;11.360;2022-10-16T09:03:38;28.50;62.00
9816;DHT22;4947;44.526;11.360;2022-10-16T09:06:17;29.00;61.40
9816;DHT22;4947;44.526;11.360;2022-10-16T09:09:01;28.60;60.60
9816;DHT22;4947;44.526;11.360;2022-10-16T09:11:36;27.80;63.00
9816;DHT22;4947;44.526;11.360;2022-10-16T09:14:18;28.30;63.00
9816;DHT22;4947;44.526;11.360;2022-10-16T09:16:57;27.90;62.80
9816;DHT22;4947;44.526;11.360;2022-10-16T09:19:30;28.10;61.50
9816;DHT22;4947;44.526;11.360;2022-10-16T09:21:59;28.30;61.80
9816;DHT22;4947;44.526;11.360;2022-10-16T09:24:30;28.20;62.00
9816;DHT22;4947;44.526;11.360;2022-10-16T09:26:57;27.30;64.50
9816;DHT22;4947;44.526;11.360;2022-10-16T09:29:25;26.90;66.20
9816;DHT22;4947;44.526;11.360;2022-10-16T09:31:57;26.70;67.10
9816;DHT22;4947;44.526;11.360;2022-10-16T09:34:35;26.30;66.70
9816;DHT22;4947;44.526;11.360;2022-10-16T09:37:10;25.70;70.00
9816;DHT22;4947;44.526;11.360;2022-10-16T09:39:50;25.50;72.30
9816;DHT22;4947;44.526;11.360;2022-10-16T09:42:18;25.20;74.90
9816;DHT22;4947;44.526;11.360;2022-10-16T09:44:48;25.20;72.90
9816;DHT22;4947;44.526;11.360;2022-10-16T09:47:20;25.00;75.50
9816;DHT22;4947;44.526;11.360;2022-10-16T09:49:52;25.10;75.80
9816;DHT22;4947;44.526;11.360;2022-10-16T09:52:24;25.10;75.10
9816;DHT22;4947;44.526;11.360;2022-10-16T09:54:53;24.80;77.40
9816;DHT22;4947;44.526;11.360;2022-10-16T09:57:22;24.90;77.30
9816;DHT22;4947;44.526;11.360;2022-10-16T09:59:51;24.90;74.70
9816;DHT22;4947;44.526;11.360;2022-10-16T10:02:31;24.80;75.60
9816;DHT22;4947;44.526;11.360;2022-10-16T10:05:02;24.80;77.00
9816;DHT22;4947;44.526;11.360;2022-10-16T10:07:38;24.70;76.20
9816;DHT22;4947;44.526;11.360;2022-10-16T10:10:20;24.50;78.70
9816;DHT22;4947;44.526;11.360;2022-10-16T10:12:48;24.50;78.40
9816;DHT22;4947;44.526;11.360;2022-10-16T10:15:16;24.50;77.80
9816;DHT22;4947;44.526;11.360;2022-10-16T10:17:50;24.40;79.10
9816;DHT22;4947;44.526;11.360;2022-10-16T10:20:26;24.50;77.50
9816;DHT22;4947;44.526;11.360;2022-10-16T10:22:55;24.60;77.60
9816;DHT22;4947;44.526;11.360;2022-10-16T10:25:39;24.60;77.10
9816;DHT22;4947;44.526;11.360;2022-10-16T10:31:09;24.60;78.80
9816;DHT22;4947;44.526;11.360;2022-10-16T10:33:48;24.60;76.70
9816;DHT22;4947;44.526;11.360;2022-10-16T10:36:25;24.50;78.10
9816;DHT22;4947;44.526;11.360;2022-10-16T10:38:58;24.50;77.20
9816;DHT22;4947;44.526;11.360;2022-10-16T10:47:48;24.60;74.80
9816;DHT22;4947;44.526;11.360;2022-10-16T10:50:22;24.60;73.20
9816;DHT22;4947;44.526;11.360;2022-10-16T10:52:58;24.60;73.10
9816;DHT22;4947;44.526;11.360;2022-10-16T10:55:33;24.50;73.80
9816;DHT22;4947;44.526;11.360;2022-10-16T10:58:25;24.50;76.30
9816;DHT22;4947;44.526;11.360;2022-10-16T11:01:01;24.50;77.50
9816;DHT22;4947;44.526;11.360;2022-10-16T11:03:50;24.50;75.10
9816;DHT22;4947;44.526;11.360;2022-10-16T11:06:24;24.50;77.20
9816;DHT22;4947;44.526;11.360;2022-10-16T11:08:57;24.50;75.80
9816;DHT22;4947;44.526;11.360;2022-10-16T11:11:31;24.40;76.70
9816;DHT22;4947;44.526;11.360;2022-10-16T11:14:04;24.40;75.80
9816;DHT22;4947;44.526;11.360;2022-10-16T11:16:37;24.40;75.90
9816;DHT22;4947;44.526;11.360;2022-10-16T11:19:12;24.50;74.90
9816;DHT22;4947;44.526;11.360;2022-10-16T11:21:49;24.50;75.00
9816;DHT22;4947;44.526;11.360;2022-10-16T11:24:22;24.50;74.40
9816;DHT22;4947;44.526;11.360;2022-10-16T11:26:52;24.50;75.70
9816;DHT22;4947;44.526;11.360;2022-10-16T11:29:28;24.50;74.40
9816;DHT22;4947;44.526;11.360;2022-10-16T11:32:00;24.50;75.30
9816;DHT22;4947;44.526;11.360;2022-10-16T11:34:42;24.50;75.80
9816;DHT22;4947;44.526;11.360;2022-10-16T11:37:18;24.40;74.40
9816;DHT22;4947;44.526;11.360;2022-10-16T11:39:47;24.40;74.10
9816;DHT22;4947;44.526;11.360;2022-10-16T11:42:19;24.50;75.00
9816;DHT22;4947;44.526;11.360;2022-10-16T11:44:53;24.60;76.30
9816;DHT22;4947;44.526;11.360;2022-10-16T11:47:30;24.50;75.70
9816;DHT22;4947;44.526;11.360;2022-10-16T11:50:10;24.60;72.10
9816;DHT22;4947;44.526;11.360;2022-10-16T11:52:46;24.50;71.40
9816;DHT22;4947;44.526;11.360;2022-10-16T11:55:21;24.50;72.60
9816;DHT22;4947;44.526;11.360;2022-10-16T11:57:51;24.50;73.20
9816;DHT22;4947;44.526;11.360;2022-10-16T12:00:22;24.40;74.00
9816;DHT22;4947;44.526;11.360;2022-10-16T12:02:59;24.30;74.90
9816;DHT22;4947;44.526;11.360;2022-10-16T12:05:39;24.40;74.90
9816;DHT22;4947;44.526;11.360;2022-10-16T12:08:15;24.50;73.30
9816;DHT22;4947;44.526;11.360;2022-10-16T12:10:45;24.50;73.30
9816;DHT22;4947;44.526;11.360;2022-10-16T12:13:32;24.50;73.50
9816;DHT22;4947;44.526;11.360;2022-10-16T12:16:19;24.50;73.00
9816;DHT22;4947;44.526;11.360;2022-10-16T12:18:48;24.60;73.20
9816;DHT22;4947;44.526;11.360;2022-10-16T12:21:17;24.60;71.50
9816;DHT22;4947;44.526;11.360;2022-10-16T12:23:50;24.50;71.90
9816;DHT22;4947;44.526;11.360;2022-10-16T12:26:26;24.50;72.00
9816;DHT22;4947;44.526;11.360;2022-10-16T12:28:54;24.50;73.70
9816;DHT22;4947;44.526;11.360;2022-10-16T12:31:37;24.60;72.30
9816;DHT22;4947;44.526;11.360;2022-10-16T12:34:16;24.50;72.10
9816;DHT22;4947;44.526;11.360;2022-10-16T12:36:47;24.50;71.70
9816;DHT22;4947;44.526;11.360;2022-10-16T12:39:22;24.40;72.00
9816;DHT22;4947;44.526;11.360;2022-10-16T12:42:01;24.50;73.50
9816;DHT22;4947;44.526;11.360;2022-10-16T12:44:33;24.40;72.10
9816;DHT22;4947;44.526;11.360;2022-10-16T12:47:01;24.50;72.10
9816;DHT22;4947;44.526;11.360;2022-10-16T12:49:47;24.40;73.20
9816;DHT22;4947;44.526;11.360;2022-10-16T12:52:27;24.50;71.80
9816;DHT22;4947;44.526;11.360;2022-10-16T12:54:58;24.50;71.80
9816;DHT22;4947;44.526;11.360;2022-10-16T12:57:41;24.50;70.60
9816;DHT22;4947;44.526;11.360;2022-10-16T13:00:21;24.40;71.70
9816;DHT22;4947;44.526;11.360;2022-10-16T13:05:57;24.60;71.70
9816;DHT22;4947;44.526;11.360;2022-10-16T13:08:41;24.50;70.50
9816;DHT22;4947;44.526;11.360;2022-10-16T13:11:24;24.50;70.10
9816;DHT22;4947;44.526;11.360;2022-10-16T13:14:06;24.50;71.10
9816;DHT22;4947;44.526;11.360;2022-10-16T13:16:48;24.60;70.80
9816;DHT22;4947;44.526;11.360;2022-10-16T13:19:23;24.50;69.90
9816;DHT22;4947;44.526;11.360;2022-10-16T13:21:59;24.50;69.30
9816;DHT22;4947;44.526;11.360;2022-10-16T13:24:42;24.50;69.60
9816;DHT22;4947;44.526;11.360;2022-10-16T13:27:23;24.50;69.40
9816;DHT22;4947;44.526;11.360;2022-10-16T13:30:01;24.50;69.50
9816;DHT22;4947;44.526;11.360;2022-10-16T13:32:29;24.60;69.90
9816;DHT22;4947;44.526;11.360;2022-10-16T13:34:57;24.60;69.70
9816;DHT22;4947;44.526;11.360;2022-10-16T13:37:31;24.60;70.20
9816;DHT22;4947;44.526;11.360;2022-10-16T13:40:11;24.70;72.40
9816;DHT22;4947;44.526;11.360;2022-10-16T13:42:43;24.60;70.10
9816;DHT22;4947;44.526;11.360;2022-10-16T13:45:18;24.60;69.70
9816;DHT22;4947;44.526;11.360;2022-10-16T13:47:45;24.70;69.90
9816;DHT22;4947;44.526;11.360;2022-10-16T13:50:15;24.70;69.30
9816;DHT22;4947;44.526;11.360;2022-10-16T13:52:43;24.60;69.30
9816;DHT22;4947;44.526;11.360;2022-10-16T13:55:12;24.70;68.60
9816;DHT22;4947;44.526;11.360;2022-10-16T13:57:40;24.60;70.50
9816;DHT22;4947;44.526;11.360;2022-10-16T14:00:27;24.60;69.30
9816;DHT22;4947;44.526;11.360;2022-10-16T14:03:02;24.70;69.10
9816;DHT22;4947;44.526;11.360;2022-10-16T14:05:31;24.60;68.90
9816;DHT22;4947;44.526;11.360;2022-10-16T14:07:59;24.50;69.20
9816;DHT22;4947;44.526;11.360;2022-10-16T14:10:28;24.60;68.40
9816;DHT22;4947;44.526;11.360;2022-10-16T14:12:59;24.60;68.80
9816;DHT22;4947;44.526;11.360;2022-10-16T14:15:29;24.60;68.20
9816;DHT22;4947;44.526;11.360;2022-10-16T14:18:02;24.70;67.70
9816;DHT22;4947;44.526;11.360;2022-10-16T14:20:33;24.70;68.60
9816;DHT22;4947;44.526;11.360;2022-10-16T14:23:03;24.70;68.70
9816;DHT22;4947;44.526;11.360;2022-10-16T14:25:32;24.70;69.00
9816;DHT22;4947;44.526;11.360;2022-10-16T14:28:02;24.70;68.10
9816;DHT22;4947;44.526;11.360;2022-10-16T14:30:33;24.70;69.70
9816;DHT22;4947;44.526;11.360;2022-10-16T14:33:02;24.70;69.10
9816;DHT22;4947;44.526;11.360;2022-10-16T14:35:32;24.70;69.40
9816;DHT22;4947;44.526;11.360;2022-10-16T14:38:01;24.70;71.60
9816;DHT22;4947;44.526;11.360;2022-10-16T14:40:31;24.60;69.00
9816;DHT22;4947;44.526;11.360;2022-10-16T14:43:02;24.60;68.10
9816;DHT22;4947;44.526;11.360;2022-10-16T14:45:33;24.60;68.60
9816;DHT22;4947;44.526;11.360;2022-10-16T14:48:04;24.70;70.20
9816;DHT22;4947;44.526;11.360;2022-10-16T14:50:33;24.60;69.40
9816;DHT22;4947;44.526;11.360;2022-10-16T14:53:01;24.70;70.90
9816;DHT22;4947;44.526;11.360;2022-10-16T14:55:29;24.60;70.00
9816;DHT22;4947;44.526;11.360;2022-10-16T14:57:57;24.50;71.50
9816;DHT22;4947;44.526;11.360;2022-10-16T15:00:25;24.50;72.00
9816;DHT22;4947;44.526;11.360;2022-10-16T15:02:54;24.40;69.30
9816;DHT22;4947;44.526;11.360;2022-10-16T15:05:23;24.30;70.20
9816;DHT22;4947;44.526;11.360;2022-10-16T15:07:52;24.40;70.50
9816;DHT22;4947;44.526;11.360;2022-10-16T15:10:21;24.40;70.00
9816;DHT22;4947;44.526;11.360;2022-10-16T15:12:49;24.40;70.50
9816;DHT22;4947;44.526;11.360;2022-10-16T15:15:32;24.40;70.20
9816;DHT22;4947;44.526;11.360;2022-10-16T15:18:03;24.40;70.30
9816;DHT22;4947;44.526;11.360;2022-10-16T15:20:33;24.40;71.00
9816;DHT22;4947;44.526;11.360;2022-10-16T15:23:06;24.30;71.00
9816;DHT22;4947;44.526;11.360;2022-10-16T15:25:39;24.20;72.10
9816;DHT22;4947;44.526;11.360;2022-10-16T15:28:09;24.10;71.80
9816;DHT22;4947;44.526;11.360;2022-10-16T15:30:40;24.10;71.60
9816;DHT22;4947;44.526;11.360;2022-10-16T15:33:12;24.10;71.40
9816;DHT22;4947;44.526;11.360;2022-10-16T15:35:41;24.10;71.30
9816;DHT22;4947;44.526;11.360;2022-10-16T15:38:11;24.10;71.80
9816;DHT22;4947;44.526;11.360;2022-10-16T15:40:39;24.10;71.80
9816;DHT22;4947;44.526;11.360;2022-10-16T15:43:07;24.10;71.40
9816;DHT22;4947;44.526;11.360;2022-10-16T15:45:35;24.00;71.90
9816;DHT22;4947;44.526;11.360;2022-10-16T15:48:03;23.90;72.60
9816;DHT22;4947;44.526;11.360;2022-10-16T15:50:32;23.80;74.30
9816;DHT22;4947;44.526;11.360;2022-10-16T15:53:00;23.70;74.50
9816;DHT22;4947;44.526;11.360;2022-10-16T15:55:27;23.80;73.40
9816;DHT22;4947;44.526;11.360;2022-10-16T15:57:55;23.70;73.70
9816;DHT22;4947;44.526;11.360;2022-10-16T16:00:22;23.70;74.00
9816;DHT22;4947;44.526;11.360;2022-10-16T16:02:52;23.70;73.30
9816;DHT22;4947;44.526;11.360;2022-10-16T16:05:20;23.70;74.20
9816;DHT22;4947;44.526;11.360;2022-10-16T16:07:50;23.50;78.00
9816;DHT22;4947;44.526;11.360;2022-10-16T16:10:17;23.40;77.70
9816;DHT22;4947;44.526;11.360;2022-10-16T16:12:46;23.40;77.80
9816;DHT22;4947;44.526;11.360;2022-10-16T16:15:17;23.30;77.00
9816;DHT22;4947;44.526;11.360;2022-10-16T16:17:44;23.20;77.80
9816;DHT22;4947;44.526;11.360;2022-10-16T16:20:12;23.10;78.90